sensor_id;sensor_type;location;lat;lon;timestamp;pressure;altitude;pressure_sealevel;temperature;humidity
4022;BME280;2025;48.260;16.432;2023-09-19T00:01:39;99330.84;;;19.86;67.21
4022;BME280;2025;48.260;16.432;2023-09-19T00:04:07;99314.72;;;19.81;67.46
4022;BME280;2025;48.260;16.432;2023-09-19T00:06:35;99323.47;;;19.76;67.89
4022;BME280;2025;48.260;16.432;2023-09-19T00:09:03;99326.28;;;19.69;68.14
4022;BME280;2025;48.260;16.432;2023-09-19T00:11:30;99328.72;;;19.59;69.09
4022;BME280;2025;48.260;16.432;2023-09-19T00:13:57;99320.28;;;19.50;70.10
4022;BME280;2025;48.260;16.432;2023-09-19T00:16:26;99326.72;;;19.37;71.55
4022;BME280;2025;48.260;16.432;2023-09-19T00:18:53;99328.50;;;19.20;73.19
4022;BME280;2025;48.260;16.432;2023-09-19T00:21:22;99325.06;;;19.08;73.49
4022;BME280;2025;48.260;16.432;2023-09-19T00:23:49;99324.94;;;19.03;74.52
4022;BME280;2025;48.260;16.432;2023-09-19T00:26:17;99328.31;;;18.98;74.94
4022;BME280;2025;48.260;16.432;2023-09-19T00:28:46;99326.94;;;18.95;75.15
4022;BME280;2025;48.260;16.432;2023-09-19T00:31:13;99325.69;;;18.86;76.21
4022;BME280;2025;48.260;16.432;2023-09-19T00:33:40;99332.50;;;18.70;77.74
4022;BME280;2025;48.260;16.432;2023-09-19T00:36:08;99339.78;;;18.51;79.84
4022;BME280;2025;48.260;16.432;2023-09-19T00:38:36;99342.75;;;18.20;81.99
4022;BME280;2025;48.260;16.432;2023-09-19T00:41:03;99346.75;;;17.99;83.92
4022;BME280;2025;48.260;16.432;2023-09-19T00:43:30;99343.78;;;17.77;85.76
4022;BME280;2025;48.260;16.432;2023-09-19T00:46:00;99351.66;;;17.53;87.32
4022;BME280;2025;48.260;16.432;2023-09-19T00:48:29;99352.63;;;17.40;88.78
4022;BME280;2025;48.260;16.432;2023-09-19T00:50:59;99358.94;;;17.27;91.33
4022;BME280;2025;48.260;16.432;2023-09-19T00:53:30;99356.34;;;17.21;91.45
4022;BME280;2025;48.260;16.432;2023-09-19T00:56:01;99351.91;;;17.15;90.83
4022;BME280;2025;48.260;16.432;2023-09-19T00:58:29;99353.03;;;17.07;92.30
4022;BME280;2025;48.260;16.432;2023-09-19T01:00:59;99356.94;;;17.04;92.06
4022;BME280;2025;48.260;16.432;2023-09-19T01:03:27;99363.44;;;17.09;90.84
4022;BME280;2025;48.260;16.432;2023-09-19T01:05:54;99354.63;;;17.08;92.02
4022;BME280;2025;48.260;16.432;2023-09-19T01:08:21;99354.50;;;17.03;91.22
4022;BME280;2025;48.260;16.432;2023-09-19T01:10:52;99360.69;;;16.97;92.62
4022;BME280;2025;48.260;16.432;2023-09-19T01:13:31;99352.56;;;16.92;93.40
4022;BME280;2025;48.260;16.432;2023-09-19T01:16:06;99357.88;;;16.92;92.92
4022;BME280;2025;48.260;16.432;2023-09-19T01:18:43;99357.66;;;16.93;91.96
4022;BME280;2025;48.260;16.432;2023-09-19T01:21:15;99361.13;;;16.94;92.90
4022;BME280;2025;48.260;16.432;2023-09-19T01:27:01;99368.75;;;16.90;93.08
4022;BME280;2025;48.260;16.432;2023-09-19T01:29:38;99374.28;;;16.89;92.73
4022;BME280;2025;48.260;16.432;2023-09-19T01:32:08;99376.94;;;16.89;93.59
4022;BME280;2025;48.260;16.432;2023-09-19T01:34:45;99375.97;;;16.83;94.07
4022;BME280;2025;48.260;16.432;2023-09-19T01:37:14;99387.63;;;16.82;92.05
4022;BME280;2025;48.260;16.432;2023-09-19T01:39:46;99373.31;;;16.83;93.14
4022;BME280;2025;48.260;16.432;2023-09-19T01:42:22;99376.59;;;16.78;92.46
4022;BME280;2025;48.260;16.432;2023-09-19T01:44:55;99376.59;;;16.78;92.70
4022;BME280;2025;48.260;16.432;2023-09-19T01:47:31;99383.59;;;16.73;91.97
4022;BME280;2025;48.260;16.432;2023-09-19T01:50:11;99385.44;;;16.72;91.63
4022;BME280;2025;48.260;16.432;2023-09-19T01:52:48;99389.22;;;16.64;92.41
4022;BME280;2025;48.260;16.432;2023-09-19T01:55:16;99390.72;;;16.54;93.27
4022;BME280;2025;48.260;16.432;2023-09-19T01:57:56;99390.59;;;16.42;95.49
4022;BME280;2025;48.260;16.432;2023-09-19T02:00:26;99397.41;;;16.31;96.89
4022;BME280;2025;48.260;16.432;2023-09-19T02:02:58;99388.25;;;16.27;98.60
4022;BME280;2025;48.260;16.432;2023-09-19T02:05:26;99384.59;;;16.21;95.42
4022;BME280;2025;48.260;16.432;2023-09-19T02:07:53;99388.72;;;16.17;97.73
4022;BME280;2025;48.260;16.432;2023-09-19T02:10:21;99379.78;;;16.12;96.49
4022;BME280;2025;48.260;16.432;2023-09-19T02:12:48;99390.63;;;16.04;94.73
4022;BME280;2025;48.260;16.432;2023-09-19T02:15:16;99381.09;;;15.96;95.35
4022;BME280;2025;48.260;16.432;2023-09-19T02:17:43;99388.69;;;15.92;96.92
4022;BME280;2025;48.260;16.432;2023-09-19T02:20:13;99378.88;;;15.93;96.47
4022;BME280;2025;48.260;16.432;2023-09-19T02:22:41;99382.00;;;15.83;98.30
4022;BME280;2025;48.260;16.432;2023-09-19T02:25:09;99386.69;;;15.81;98.09
4022;BME280;2025;48.260;16.432;2023-09-19T02:27:36;99383.03;;;15.75;99.81
4022;BME280;2025;48.260;16.432;2023-09-19T02:30:06;99382.84;;;15.77;100.00
4022;BME280;2025;48.260;16.432;2023-09-19T02:32:33;99388.56;;;15.67;100.00
4022;BME280;2025;48.260;16.432;2023-09-19T02:35:02;99390.19;;;15.75;100.00
4022;BME280;2025;48.260;16.432;2023-09-19T02:37:32;99386.53;;;15.76;100.00
4022;BME280;2025;48.260;16.432;2023-09-19T02:40:00;99392.03;;;15.74;100.00
4022;BME280;2025;48.260;16.432;2023-09-19T02:42:28;99389.19;;;15.69;100.00
4022;BME280;2025;48.260;16.432;2023-09-19T02:44:55;99392.03;;;15.74;100.00
4022;BME280;2025;48.260;16.432;2023-09-19T02:47:22;99392.84;;;15.75;100.00
4022;BME280;2025;48.260;16.432;2023-09-19T02:49:50;99395.06;;;15.78;100.00
4022;BME280;2025;48.260;16.432;2023-09-19T02:52:17;99401.63;;;15.75;100.00
4022;BME280;2025;48.260;16.432;2023-09-19T02:54:46;99400.00;;;15.74;100.00
4022;BME280;2025;48.260;16.432;2023-09-19T02:57:13;99400.00;;;15.74;100.00
4022;BME280;2025;48.260;16.432;2023-09-19T02:59:42;99402.25;;;15.71;100.00
4022;BME280;2025;48.260;16.432;2023-09-19T03:02:09;99402.03;;;15.79;100.00
4022;BME280;2025;48.260;16.432;2023-09-19T03:04:36;99401.22;;;15.78;100.00
4022;BME280;2025;48.260;16.432;2023-09-19T03:07:03;99400.97;;;15.80;100.00
4022;BME280;2025;48.260;16.432;2023-09-19T03:09:31;99406.72;;;15.77;100.00
4022;BME280;2025;48.260;16.432;2023-09-19T03:12:00;99392.00;;;15.81;100.00
4022;BME280;2025;48.260;16.432;2023-09-19T03:14:27;99397.94;;;15.83;100.00
4022;BME280;2025;48.260;16.432;2023-09-19T03:16:55;99397.31;;;15.81;100.00
4022;BME280;2025;48.260;16.432;2023-09-19T03:19:22;99403.63;;;15.80;100.00
4022;BME280;2025;48.260;16.432;2023-09-19T03:21:51;99398.28;;;15.87;100.00
4022;BME280;2025;48.260;16.432;2023-09-19T03:24:19;99402.59;;;15.88;100.00
4022;BME280;2025;48.260;16.432;2023-09-19T03:26:46;99404.41;;;15.87;100.00
4022;BME280;2025;48.260;16.432;2023-09-19T03:29:14;99408.28;;;15.91;100.00
4022;BME280;2025;48.260;16.432;2023-09-19T03:31:43;99407.44;;;15.97;100.00
4022;BME280;2025;48.260;16.432;2023-09-19T03:34:09;99420.13;;;15.95;100.00
4022;BME280;2025;48.260;16.432;2023-09-19T03:36:37;99411.31;;;16.01;100.00
4022;BME280;2025;48.260;16.432;2023-09-19T03:39:04;99412.97;;;15.96;100.00
4022;BME280;2025;48.260;16.432;2023-09-19T03:41:31;99417.66;;;15.94;100.00
4022;BME280;2025;48.260;16.432;2023-09-19T03:43:58;99406.19;;;16.00;100.00
4022;BME280;2025;48.260;16.432;2023-09-19T03:46:27;99410.28;;;16.02;100.00
4022;BME280;2025;48.260;16.432;2023-09-19T03:48:54;99410.28;;;16.02;100.00
4022;BME280;2025;48.260;16.432;2023-09-19T03:51:21;99411.50;;;16.00;100.00
4022;BME280;2025;48.260;16.432;2023-09-19T03:53:48;99417.84;;;15.99;100.00
4022;BME280;2025;48.260;16.432;2023-09-19T03:56:15;99415.59;;;16.02;100.00
4022;BME280;2025;48.260;16.432;2023-09-19T03:58:43;99418.25;;;16.02;100.00
4022;BME280;2025;48.260;16.432;2023-09-19T04:01:10;99413.50;;;16.11;100.00
4022;BME280;2025;48.260;16.432;2023-09-19T04:03:40;99426.53;;;16.13;100.00
4022;BME280;2025;48.260;16.432;2023-09-19T04:06:13;99423.09;;;16.12;100.00
4022;BME280;2025;48.260;16.432;2023-09-19T04:08:40;99425.34;;;16.15;100.00
4022;BME280;2025;48.260;16.432;2023-09-19T04:11:07;99432.22;;;16.23;100.00
4022;BME280;2025;48.260;16.432;2023-09-19T04:13:34;99439.78;;;16.19;100.00
4022;BME280;2025;48.260;16.432;2023-09-19T04:16:01;99441.41;;;16.27;100.00
4022;BME280;2025;48.260;16.432;2023-09-19T04:18:29;99447.94;;;16.25;100.00
4022;BME280;2025;48.260;16.432;2023-09-19T04:21:00;99444.47;;;16.24;100.00
4022;BME280;2025;48.260;16.432;2023-09-19T04:23:29;99445.50;;;16.23;100.00
4022;BME280;2025;48.260;16.432;2023-09-19T04:25:56;99449.78;;;16.24;100.00
4022;BME280;2025;48.260;16.432;2023-09-19T04:28:23;99452.06;;;16.20;100.00
4022;BME280;2025;48.260;16.432;2023-09-19T04:30:53;99451.97;;;16.34;99.77
4022;BME280;2025;48.260;16.432;2023-09-19T04:33:20;99456.31;;;16.28;100.00
4022;BME280;2025;48.260;16.432;2023-09-19T04:35:49;99458.97;;;16.28;100.00
4022;BME280;2025;48.260;16.432;2023-09-19T04:38:18;99463.69;;;16.26;100.00
4022;BME280;2025;48.260;16.432;2023-09-19T04:40:45;99469.00;;;16.26;100.00
4022;BME280;2025;48.260;16.432;2023-09-19T04:43:12;99471.03;;;16.24;100.00
4022;BME280;2025;48.260;16.432;2023-09-19T04:45:40;99473.69;;;16.24;100.00
4022;BME280;2025;48.260;16.432;2023-09-19T04:48:07;99478.97;;;16.31;99.59
4022;BME280;2025;48.260;16.432;2023-09-19T04:50:36;99473.63;;;16.37;99.05
4022;BME280;2025;48.260;16.432;2023-09-19T04:53:04;99481.63;;;16.31;100.00
4022;BME280;2025;48.260;16.432;2023-09-19T04:55:34;99474.09;;;16.28;100.00
4022;BME280;2025;48.260;16.432;2023-09-19T04:58:00;99482.03;;;16.34;98.16
4022;BME280;2025;48.260;16.432;2023-09-19T05:00:28;99482.88;;;16.28;98.61
4022;BME280;2025;48.260;16.432;2023-09-19T05:02:56;99485.38;;;16.23;99.56
4022;BME280;2025;48.260;16.432;2023-09-19T05:05:24;99478.19;;;16.23;99.73
4022;BME280;2025;48.260;16.432;2023-09-19T05:07:51;99495.38;;;16.21;100.00
4022;BME280;2025;48.260;16.432;2023-09-19T05:10:19;99490.50;;;16.18;100.00
4022;BME280;2025;48.260;16.432;2023-09-19T05:12:48;99490.72;;;16.16;100.00
4022;BME280;2025;48.260;16.432;2023-09-19T05:15:17;99487.63;;;16.19;100.00
4022;BME280;2025;48.260;16.432;2023-09-19T05:17:48;99489.25;;;16.20;100.00
4022;BME280;2025;48.260;16.432;2023-09-19T05:20:15;99500.50;;;16.22;100.00
4022;BME280;2025;48.260;16.432;2023-09-19T05:22:50;99501.94;;;16.18;100.00
4022;BME280;2025;48.260;16.432;2023-09-19T05:25:16;99510.72;;;16.19;100.00
4022;BME280;2025;48.260;16.432;2023-09-19T05:27:43;99506.00;;;16.21;100.00
4022;BME280;2025;48.260;16.432;2023-09-19T05:30:13;99515.44;;;16.17;100.00
4022;BME280;2025;48.260;16.432;2023-09-19T05:32:41;99507.25;;;16.18;100.00
4022;BME280;2025;48.260;16.432;2023-09-19T05:35:09;99507.88;;;16.14;100.00
4022;BME280;2025;48.260;16.432;2023-09-19T05:37:38;99509.31;;;16.16;100.00
4022;BME280;2025;48.260;16.432;2023-09-19T05:40:06;99507.88;;;16.20;100.00
4022;BME280;2025;48.260;16.432;2023-09-19T05:42:36;99507.88;;;16.14;100.00
4022;BME280;2025;48.260;16.432;2023-09-19T05:45:04;99507.47;;;16.10;100.00
4022;BME280;2025;48.260;16.432;2023-09-19T05:47:33;99504.22;;;16.08;100.00
4022;BME280;2025;48.260;16.432;2023-09-19T05:50:01;99513.06;;;16.02;100.00
4022;BME280;2025;48.260;16.432;2023-09-19T05:52:28;99515.69;;;16.02;100.00
4022;BME280;2025;48.260;16.432;2023-09-19T05:54:55;99513.66;;;16.04;100.00
4022;BME280;2025;48.260;16.432;2023-09-19T05:57:22;99506.69;;;16.03;100.00
4022;BME280;2025;48.260;16.432;2023-09-19T05:59:50;99509.53;;;16.08;100.00
4022;BME280;2025;48.260;16.432;2023-09-19T06:02:17;99507.94;;;16.00;100.00
4022;BME280;2025;48.260;16.432;2023-09-19T06:04:46;99513.06;;;16.02;100.00
4022;BME280;2025;48.260;16.432;2023-09-19T06:07:12;99506.50;;;16.05;100.00
4022;BME280;2025;48.260;16.432;2023-09-19T06:09:40;99508.97;;;16.06;100.00
4022;BME280;2025;48.260;16.432;2023-09-19T06:12:08;99516.91;;;16.06;100.00
4022;BME280;2025;48.260;16.432;2023-09-19T06:14:35;99517.50;;;16.08;100.00
4022;BME280;2025;48.260;16.432;2023-09-19T06:17:01;99514.22;;;16.13;100.00
4022;BME280;2025;48.260;16.432;2023-09-19T06:19:28;99515.88;;;16.14;100.00
4022;BME280;2025;48.260;16.432;2023-09-19T06:21:57;99516.47;;;16.16;100.00
4022;BME280;2025;48.260;16.432;2023-09-19T06:24:25;99519.50;;;16.19;100.00
4022;BME280;2025;48.260;16.432;2023-09-19T06:26:52;99527.66;;;16.25;100.00
4022;BME280;2025;48.260;16.432;2023-09-19T06:29:19;99534.94;;;16.36;100.00
4022;BME280;2025;48.260;16.432;2023-09-19T06:31:46;99526.34;;;16.40;100.00
4022;BME280;2025;48.260;16.432;2023-09-19T06:34:13;99533.03;;;16.50;100.00
4022;BME280;2025;48.260;16.432;2023-09-19T06:36:40;99544.44;;;16.57;100.00
4022;BME280;2025;48.260;16.432;2023-09-19T06:39:10;99537.84;;;16.66;100.00
4022;BME280;2025;48.260;16.432;2023-09-19T06:41:37;99543.75;;;16.75;100.00
4022;BME280;2025;48.260;16.432;2023-09-19T06:44:05;99544.94;;;16.85;100.00
4022;BME280;2025;48.260;16.432;2023-09-19T06:46:32;99552.19;;;16.97;99.46
4022;BME280;2025;48.260;16.432;2023-09-19T06:49:00;99558.97;;;16.99;100.00
4022;BME280;2025;48.260;16.432;2023-09-19T06:51:31;99555.81;;;17.09;98.11
4022;BME280;2025;48.260;16.432;2023-09-19T06:54:00;99568.06;;;17.10;97.41
4022;BME280;2025;48.260;16.432;2023-09-19T06:56:28;99568.84;;;17.17;99.55
4022;BME280;2025;48.260;16.432;2023-09-19T06:58:55;99572.16;;;17.13;98.52
4022;BME280;2025;48.260;16.432;2023-09-19T07:01:22;99575.81;;;17.18;96.92
4022;BME280;2025;48.260;16.432;2023-09-19T07:03:50;99566.78;;;17.19;96.76
4022;BME280;2025;48.260;16.432;2023-09-19T07:06:18;99568.78;;;17.24;96.26
4022;BME280;2025;48.260;16.432;2023-09-19T07:08:45;99575.75;;;17.25;96.10
4022;BME280;2025;48.260;16.432;2023-09-19T07:11:12;99567.78;;;17.43;93.67
4022;BME280;2025;48.260;16.432;2023-09-19T07:13:41;99575.56;;;17.45;90.84
4022;BME280;2025;48.260;16.432;2023-09-19T07:16:08;99569.97;;;17.53;92.70
4022;BME280;2025;48.260;16.432;2023-09-19T07:18:52;99575.06;;;17.55;95.48
4022;BME280;2025;48.260;16.432;2023-09-19T07:21:20;99573.25;;;17.55;91.77
4022;BME280;2025;48.260;16.432;2023-09-19T07:23:47;99579.75;;;17.59;91.76
4022;BME280;2025;48.260;16.432;2023-09-19T07:26:15;99584.25;;;17.59;95.13
4022;BME280;2025;48.260;16.432;2023-09-19T07:28:43;99587.06;;;17.64;97.37
4022;BME280;2025;48.260;16.432;2023-09-19T07:31:10;99587.53;;;17.61;91.86
4022;BME280;2025;48.260;16.432;2023-09-19T07:33:39;99591.19;;;17.60;93.42
4022;BME280;2025;48.260;16.432;2023-09-19T07:36:10;99596.16;;;17.56;94.60
4022;BME280;2025;48.260;16.432;2023-09-19T07:38:38;99601.69;;;17.55;94.12
4022;BME280;2025;48.260;16.432;2023-09-19T07:41:05;99600.22;;;17.59;95.00
4022;BME280;2025;48.260;16.432;2023-09-19T07:43:34;99610.69;;;17.60;94.97
4022;BME280;2025;48.260;16.432;2023-09-19T07:46:05;99615.50;;;17.70;97.18
4022;BME280;2025;48.260;16.432;2023-09-19T07:48:34;99616.16;;;17.65;95.64
4022;BME280;2025;48.260;16.432;2023-09-19T07:51:02;99620.72;;;17.58;90.16
4022;BME280;2025;48.260;16.432;2023-09-19T07:53:30;99618.94;;;17.52;88.70
4022;BME280;2025;48.260;16.432;2023-09-19T07:56:04;99622.41;;;17.53;89.03
4022;BME280;2025;48.260;16.432;2023-09-19T07:58:31;99622.41;;;17.53;90.15
4022;BME280;2025;48.260;16.432;2023-09-19T08:01:11;99621.81;;;17.51;88.57
4022;BME280;2025;48.260;16.432;2023-09-19T08:03:40;99615.84;;;17.55;88.25
4022;BME280;2025;48.260;16.432;2023-09-19T08:06:09;99621.97;;;17.56;88.52
4022;BME280;2025;48.260;16.432;2023-09-19T08:08:36;99632.19;;;17.59;89.07
4022;BME280;2025;48.260;16.432;2023-09-19T08:11:04;99623.75;;;17.62;88.46
4022;BME280;2025;48.260;16.432;2023-09-19T08:13:37;99626.38;;;17.68;86.77
4022;BME280;2025;48.260;16.432;2023-09-19T08:16:06;99627.16;;;17.69;88.59
4022;BME280;2025;48.260;16.432;2023-09-19T08:18:35;99626.97;;;17.70;87.58
4022;BME280;2025;48.260;16.432;2023-09-19T08:21:02;99633.50;;;17.75;88.19
4022;BME280;2025;48.260;16.432;2023-09-19T08:23:29;99633.16;;;17.89;87.69
4022;BME280;2025;48.260;16.432;2023-09-19T08:25:57;99635.03;;;18.07;88.14
4022;BME280;2025;48.260;16.432;2023-09-19T08:28:27;99639.13;;;18.28;85.64
4022;BME280;2025;48.260;16.432;2023-09-19T08:30:55;99640.38;;;18.44;83.29
4022;BME280;2025;48.260;16.432;2023-09-19T08:33:23;99640.50;;;18.49;85.20
4022;BME280;2025;48.260;16.432;2023-09-19T08:35:52;99645.78;;;18.56;86.62
4022;BME280;2025;48.260;16.432;2023-09-19T08:38:18;99663.53;;;18.62;82.41
4022;BME280;2025;48.260;16.432;2023-09-19T08:40:45;99660.84;;;18.62;81.64
4022;BME280;2025;48.260;16.432;2023-09-19T08:43:12;99660.66;;;18.64;81.24
4022;BME280;2025;48.260;16.432;2023-09-19T08:45:39;99662.50;;;18.63;80.67
4022;BME280;2025;48.260;16.432;2023-09-19T08:48:20;99661.69;;;18.63;80.24
4022;BME280;2025;48.260;16.432;2023-09-19T08:50:54;99668.88;;;18.62;80.60
4022;BME280;2025;48.260;16.432;2023-09-19T08:53:27;99670.13;;;18.60;81.49
4022;BME280;2025;48.260;16.432;2023-09-19T08:55:59;99671.19;;;18.59;81.10
4022;BME280;2025;48.260;16.432;2023-09-19T08:58:32;99667.47;;;18.60;82.22
4022;BME280;2025;48.260;16.432;2023-09-19T09:01:01;99673.25;;;18.57;80.67
4022;BME280;2025;48.260;16.432;2023-09-19T09:03:32;99675.69;;;18.58;82.14
4022;BME280;2025;48.260;16.432;2023-09-19T09:06:01;99676.44;;;18.65;81.52
4022;BME280;2025;48.260;16.432;2023-09-19T09:08:31;99669.16;;;18.72;82.77
4022;BME280;2025;48.260;16.432;2023-09-19T09:10:58;99679.09;;;18.65;80.01
4022;BME280;2025;48.260;16.432;2023-09-19T09:13:25;99679.53;;;18.62;79.70
4022;BME280;2025;48.260;16.432;2023-09-19T09:15:53;99677.47;;;18.64;81.18
4022;BME280;2025;48.260;16.432;2023-09-19T09:18:20;99678.97;;;18.60;79.91
4022;BME280;2025;48.260;16.432;2023-09-19T09:20:48;99671.38;;;18.57;81.04
4022;BME280;2025;48.260;16.432;2023-09-19T09:23:16;99684.72;;;18.57;81.19
4022;BME280;2025;48.260;16.432;2023-09-19T09:25:47;99686.38;;;18.58;81.72
4022;BME280;2025;48.260;16.432;2023-09-19T09:28:19;99677.25;;;18.47;80.42
4022;BME280;2025;48.260;16.432;2023-09-19T09:30:46;99682.13;;;18.50;81.74
4022;BME280;2025;48.260;16.432;2023-09-19T09:33:14;99680.13;;;18.46;81.68
4022;BME280;2025;48.260;16.432;2023-09-19T09:35:49;99680.38;;;18.44;80.51
4022;BME280;2025;48.260;16.432;2023-09-19T09:38:22;99689.53;;;18.48;80.55
4022;BME280;2025;48.260;16.432;2023-09-19T09:40:53;99685.31;;;18.59;78.70
4022;BME280;2025;48.260;16.432;2023-09-19T09:43:30;99691.53;;;18.71;78.63
4022;BME280;2025;48.260;16.432;2023-09-19T09:46:14;99695.25;;;18.89;77.65
4022;BME280;2025;48.260;16.432;2023-09-19T09:49:00;99688.44;;;19.23;77.51
4022;BME280;2025;48.260;16.432;2023-09-19T09:51:45;99686.91;;;19.69;76.74
4022;BME280;2025;48.260;16.432;2023-09-19T09:54:25;99695.91;;;19.98;75.24
4022;BME280;2025;48.260;16.432;2023-09-19T09:56:56;99692.53;;;20.03;72.05
4022;BME280;2025;48.260;16.432;2023-09-19T09:59:47;99689.06;;;20.03;72.53
4022;BME280;2025;48.260;16.432;2023-09-19T10:02:17;99694.72;;;20.06;71.92
4022;BME280;2025;48.260;16.432;2023-09-19T10:04:50;99695.53;;;20.18;70.63
4022;BME280;2025;48.260;16.432;2023-09-19T10:07:39;99696.44;;;20.59;70.56
4022;BME280;2025;48.260;16.432;2023-09-19T10:10:09;99696.78;;;21.03;68.04
4022;BME280;2025;48.260;16.432;2023-09-19T10:12:44;99692.50;;;21.99;65.81
4022;BME280;2025;48.260;16.432;2023-09-19T10:15:16;99692.34;;;22.66;63.51
4022;BME280;2025;48.260;16.432;2023-09-19T10:17:46;99688.53;;;22.40;63.56
4022;BME280;2025;48.260;16.432;2023-09-19T10:20:14;99689.28;;;22.19;62.87
4022;BME280;2025;48.260;16.432;2023-09-19T10:22:50;99685.72;;;22.30;61.78
4022;BME280;2025;48.260;16.432;2023-09-19T10:25:26;99692.78;;;22.58;59.90
4022;BME280;2025;48.260;16.432;2023-09-19T10:27:56;99687.03;;;22.71;61.28
4022;BME280;2025;48.260;16.432;2023-09-19T10:30:27;99691.31;;;22.72;61.52
4022;BME280;2025;48.260;16.432;2023-09-19T10:33:00;99686.19;;;22.93;59.72
4022;BME280;2025;48.260;16.432;2023-09-19T10:35:28;99688.28;;;22.42;60.18
4022;BME280;2025;48.260;16.432;2023-09-19T10:37:57;99689.63;;;22.22;60.30
4022;BME280;2025;48.260;16.432;2023-09-19T10:40:28;99695.13;;;22.33;61.92
4022;BME280;2025;48.260;16.432;2023-09-19T10:43:01;99684.75;;;22.19;60.90
4022;BME280;2025;48.260;16.432;2023-09-19T10:45:31;99696.44;;;22.13;61.56
4022;BME280;2025;48.260;16.432;2023-09-19T10:47:58;99691.41;;;22.34;61.09
4022;BME280;2025;48.260;16.432;2023-09-19T10:50:27;99687.22;;;22.65;60.31
4022;BME280;2025;48.260;16.432;2023-09-19T10:52:57;99692.34;;;23.10;58.19
4022;BME280;2025;48.260;16.432;2023-09-19T10:55:32;99688.00;;;23.69;57.15
4022;BME280;2025;48.260;16.432;2023-09-19T10:58:01;99690.09;;;24.42;56.61
4022;BME280;2025;48.260;16.432;2023-09-19T11:00:50;99683.03;;;24.98;57.16
4022;BME280;2025;48.260;16.432;2023-09-19T11:03:19;99675.53;;;25.11;54.60
4022;BME280;2025;48.260;16.432;2023-09-19T11:06:06;99682.31;;;25.18;53.86
4022;BME280;2025;48.260;16.432;2023-09-19T11:09:01;99677.63;;;24.83;51.95
4022;BME280;2025;48.260;16.432;2023-09-19T11:11:50;99674.72;;;24.32;53.39
4022;BME280;2025;48.260;16.432;2023-09-19T11:14:40;99677.78;;;24.51;55.30
4022;BME280;2025;48.260;16.432;2023-09-19T11:17:33;99668.94;;;24.66;54.12
4022;BME280;2025;48.260;16.432;2023-09-19T11:20:22;99681.13;;;23.78;56.75
4022;BME280;2025;48.260;16.432;2023-09-19T11:23:19;99688.38;;;23.18;59.53
4022;BME280;2025;48.260;16.432;2023-09-19T11:25:52;99677.00;;;22.89;60.04
4022;BME280;2025;48.260;16.432;2023-09-19T11:28:31;99681.47;;;22.56;60.64
4022;BME280;2025;48.260;16.432;2023-09-19T11:30:59;99680.84;;;22.27;60.74
4022;BME280;2025;48.260;16.432;2023-09-19T11:33:45;99680.56;;;21.89;61.52
4022;BME280;2025;48.260;16.432;2023-09-19T11:36:15;99682.34;;;21.84;62.95
4022;BME280;2025;48.260;16.432;2023-09-19T11:38:58;99676.13;;;22.00;64.19
4022;BME280;2025;48.260;16.432;2023-09-19T11:41:40;99669.38;;;22.76;61.56
4022;BME280;2025;48.260;16.432;2023-09-19T11:44:35;99676.44;;;22.60;59.70
4022;BME280;2025;48.260;16.432;2023-09-19T11:47:05;99678.50;;;22.52;61.47
4022;BME280;2025;48.260;16.432;2023-09-19T11:49:32;99683.28;;;22.50;60.82
4022;BME280;2025;48.260;16.432;2023-09-19T11:52:01;99671.06;;;22.60;60.06
4022;BME280;2025;48.260;16.432;2023-09-19T11:54:31;99673.91;;;22.97;58.88
4022;BME280;2025;48.260;16.432;2023-09-19T11:56:59;99671.13;;;22.87;58.18
4022;BME280;2025;48.260;16.432;2023-09-19T11:59:29;99675.34;;;22.83;58.69
4022;BME280;2025;48.260;16.432;2023-09-19T12:02:03;99658.97;;;23.33;56.92
4022;BME280;2025;48.260;16.432;2023-09-19T12:04:34;99652.41;;;23.56;56.93
4022;BME280;2025;48.260;16.432;2023-09-19T12:07:04;99658.91;;;23.98;56.30
4022;BME280;2025;48.260;16.432;2023-09-19T12:09:40;99656.25;;;23.66;55.34
4022;BME280;2025;48.260;16.432;2023-09-19T12:12:10;99666.50;;;23.37;56.03
4022;BME280;2025;48.260;16.432;2023-09-19T12:14:38;99678.91;;;22.88;57.30
4022;BME280;2025;48.260;16.432;2023-09-19T12:17:10;99671.69;;;22.67;58.20
4022;BME280;2025;48.260;16.432;2023-09-19T12:19:38;99665.22;;;23.44;55.83
4022;BME280;2025;48.260;16.432;2023-09-19T12:22:05;99663.31;;;24.19;53.52
4022;BME280;2025;48.260;16.432;2023-09-19T12:24:34;99664.44;;;24.87;50.52
4022;BME280;2025;48.260;16.432;2023-09-19T12:27:05;99665.34;;;25.28;50.23
4022;BME280;2025;48.260;16.432;2023-09-19T12:29:42;99670.97;;;25.16;50.28
4022;BME280;2025;48.260;16.432;2023-09-19T12:32:11;99668.84;;;25.49;48.62
4022;BME280;2025;48.260;16.432;2023-09-19T12:34:38;99668.56;;;25.35;48.60
4022;BME280;2025;48.260;16.432;2023-09-19T12:37:10;99670.72;;;25.23;49.21
4022;BME280;2025;48.260;16.432;2023-09-19T12:39:46;99667.56;;;24.48;50.37
4022;BME280;2025;48.260;16.432;2023-09-19T12:42:17;99675.25;;;25.02;50.70
4022;BME280;2025;48.260;16.432;2023-09-19T12:44:47;99686.38;;;25.93;49.51
4022;BME280;2025;48.260;16.432;2023-09-19T12:47:18;99689.06;;;25.98;47.68
4022;BME280;2025;48.260;16.432;2023-09-19T12:50:11;99700.41;;;25.54;51.12
4022;BME280;2025;48.260;16.432;2023-09-19T12:52:44;99696.50;;;24.88;53.56
4022;BME280;2025;48.260;16.432;2023-09-19T12:55:23;99700.59;;;23.95;56.57
4022;BME280;2025;48.260;16.432;2023-09-19T12:57:56;99710.25;;;23.32;59.61
4022;BME280;2025;48.260;16.432;2023-09-19T13:00:34;99712.66;;;22.84;61.71
4022;BME280;2025;48.260;16.432;2023-09-19T13:03:13;99711.44;;;22.48;63.03
4022;BME280;2025;48.260;16.432;2023-09-19T13:05:49;99716.84;;;22.14;64.27
4022;BME280;2025;48.260;16.432;2023-09-19T13:08:18;99720.50;;;21.91;64.89
4022;BME280;2025;48.260;16.432;2023-09-19T13:11:09;99719.88;;;21.67;65.41
4022;BME280;2025;48.260;16.432;2023-09-19T13:13:39;99717.50;;;21.54;67.46
4022;BME280;2025;48.260;16.432;2023-09-19T13:16:07;99735.50;;;21.41;66.17
4022;BME280;2025;48.260;16.432;2023-09-19T13:18:49;99721.00;;;21.25;66.69
4022;BME280;2025;48.260;16.432;2023-09-19T13:21:27;99722.25;;;21.06;68.19
4022;BME280;2025;48.260;16.432;2023-09-19T13:23:56;99718.72;;;20.89;69.68
4022;BME280;2025;48.260;16.432;2023-09-19T13:26:25;99721.31;;;20.60;73.94
4022;BME280;2025;48.260;16.432;2023-09-19T13:28:53;99721.81;;;20.33;77.79